sensor_id;sensor_type;location;lat;lon;timestamp;P1;durP1;ratioP1;P2;durP2;ratioP2
7931;SDS011;4011;49.424;10.894;2023-04-30T00:03:08;4.25;;;3.33;;
7931;SDS011;4011;49.424;10.894;2023-04-30T00:08:29;3.75;;;2.60;;
7931;SDS011;4011;49.424;10.894;2023-04-30T00:13:51;4.72;;;3.15;;
7931;SDS011;4011;49.424;10.894;2023-04-30T00:19:13;4.00;;;2.90;;
7931;SDS011;4011;49.424;10.894;2023-04-30T00:24:35;4.40;;;3.25;;
7931;SDS011;4011;49.424;10.894;2023-04-30T00:29:56;4.10;;;3.00;;
7931;SDS011;4011;49.424;10.894;2023-04-30T00:35:19;4.22;;;3.25;;
7931;SDS011;4011;49.424;10.894;2023-04-30T00:40:40;4.20;;;3.22;;
7931;SDS011;4011;49.424;10.894;2023-04-30T00:46:02;3.72;;;2.80;;
7931;SDS011;4011;49.424;10.894;2023-04-30T00:51:26;4.47;;;3.05;;
7931;SDS011;4011;49.424;10.894;2023-04-30T00:56:49;4.55;;;3.05;;
7931;SDS011;4011;49.424;10.894;2023-04-30T01:02:11;5.07;;;3.08;;
7931;SDS011;4011;49.424;10.894;2023-04-30T01:07:34;4.68;;;3.35;;
7931;SDS011;4011;49.424;10.894;2023-04-30T01:12:58;4.28;;;3.05;;
7931;SDS011;4011;49.424;10.894;2023-04-30T01:23:53;4.13;;;3.13;;
7931;SDS011;4011;49.424;10.894;2023-04-30T01:29:18;4.10;;;3.00;;
7931;SDS011;4011;49.424;10.894;2023-04-30T01:34:40;3.90;;;2.92;;
7931;SDS011;4011;49.424;10.894;2023-04-30T01:40:06;4.20;;;2.92;;
7931;SDS011;4011;49.424;10.894;2023-04-30T01:45:35;4.20;;;2.83;;
7931;SDS011;4011;49.424;10.894;2023-04-30T01:51:03;4.30;;;3.13;;
7931;SDS011;4011;49.424;10.894;2023-04-30T01:56:30;4.13;;;3.03;;
7931;SDS011;4011;49.424;10.894;2023-04-30T02:01:54;3.95;;;3.05;;
7931;SDS011;4011;49.424;10.894;2023-04-30T02:07:16;4.43;;;3.25;;
7931;SDS011;4011;49.424;10.894;2023-04-30T02:12:41;4.20;;;3.10;;
7931;SDS011;4011;49.424;10.894;2023-04-30T02:18:03;3.85;;;2.97;;
7931;SDS011;4011;49.424;10.894;2023-04-30T02:23:25;3.92;;;2.75;;
7931;SDS011;4011;49.424;10.894;2023-04-30T02:28:46;4.32;;;3.35;;
7931;SDS011;4011;49.424;10.894;2023-04-30T02:34:09;4.30;;;3.42;;
7931;SDS011;4011;49.424;10.894;2023-04-30T02:39:30;4.65;;;3.40;;
7931;SDS011;4011;49.424;10.894;2023-04-30T02:44:51;4.70;;;3.58;;
7931;SDS011;4011;49.424;10.894;2023-04-30T02:50:14;4.63;;;3.30;;
7931;SDS011;4011;49.424;10.894;2023-04-30T02:55:35;4.63;;;3.30;;
7931;SDS011;4011;49.424;10.894;2023-04-30T03:00:58;4.43;;;3.05;;
7931;SDS011;4011;49.424;10.894;2023-04-30T03:06:20;3.97;;;3.10;;
7931;SDS011;4011;49.424;10.894;2023-04-30T03:11:42;4.20;;;3.20;;
7931;SDS011;4011;49.424;10.894;2023-04-30T03:17:03;4.60;;;3.63;;
7931;SDS011;4011;49.424;10.894;2023-04-30T03:22:26;4.38;;;3.40;;
7931;SDS011;4011;49.424;10.894;2023-04-30T03:27:47;4.72;;;3.20;;
7931;SDS011;4011;49.424;10.894;2023-04-30T03:33:09;4.70;;;3.20;;
7931;SDS011;4011;49.424;10.894;2023-04-30T03:38:31;4.30;;;3.25;;
7931;SDS011;4011;49.424;10.894;2023-04-30T03:43:53;6.72;;;3.40;;
7931;SDS011;4011;49.424;10.894;2023-04-30T03:49:14;4.18;;;3.33;;
7931;SDS011;4011;49.424;10.894;2023-04-30T03:54:37;4.78;;;3.15;;
7931;SDS011;4011;49.424;10.894;2023-04-30T03:59:58;4.50;;;3.47;;
7931;SDS011;4011;49.424;10.894;2023-04-30T04:05:20;4.28;;;3.00;;
7931;SDS011;4011;49.424;10.894;2023-04-30T04:10:43;4.22;;;3.08;;
7931;SDS011;4011;49.424;10.894;2023-04-30T04:16:04;4.05;;;3.38;;
7931;SDS011;4011;49.424;10.894;2023-04-30T04:21:27;4.30;;;3.30;;
7931;SDS011;4011;49.424;10.894;2023-04-30T04:26:50;3.78;;;2.92;;
7931;SDS011;4011;49.424;10.894;2023-04-30T04:32:12;4.10;;;3.35;;
7931;SDS011;4011;49.424;10.894;2023-04-30T04:37:33;3.90;;;3.13;;
7931;SDS011;4011;49.424;10.894;2023-04-30T04:42:56;4.78;;;3.33;;
7931;SDS011;4011;49.424;10.894;2023-04-30T04:48:18;7.03;;;3.70;;
7931;SDS011;4011;49.424;10.894;2023-04-30T04:53:40;5.47;;;3.25;;
7931;SDS011;4011;49.424;10.894;2023-04-30T04:59:02;8.23;;;4.50;;
7931;SDS011;4011;49.424;10.894;2023-04-30T05:04:24;8.93;;;4.53;;
7931;SDS011;4011;49.424;10.894;2023-04-30T05:09:47;7.25;;;4.07;;
7931;SDS011;4011;49.424;10.894;2023-04-30T05:15:10;5.95;;;3.92;;
7931;SDS011;4011;49.424;10.894;2023-04-30T05:20:31;7.43;;;4.05;;
7931;SDS011;4011;49.424;10.894;2023-04-30T05:25:53;6.30;;;3.40;;
7931;SDS011;4011;49.424;10.894;2023-04-30T05:31:15;6.25;;;3.50;;
7931;SDS011;4011;49.424;10.894;2023-04-30T05:36:37;4.78;;;3.58;;
7931;SDS011;4011;49.424;10.894;2023-04-30T05:41:58;7.93;;;3.80;;
7931;SDS011;4011;49.424;10.894;2023-04-30T05:47:22;5.70;;;3.65;;
7931;SDS011;4011;49.424;10.894;2023-04-30T05:52:44;5.32;;;3.88;;
7931;SDS011;4011;49.424;10.894;2023-04-30T05:58:06;5.40;;;3.50;;
7931;SDS011;4011;49.424;10.894;2023-04-30T06:03:29;4.53;;;3.25;;
7931;SDS011;4011;49.424;10.894;2023-04-30T06:08:50;5.40;;;3.38;;
7931;SDS011;4011;49.424;10.894;2023-04-30T06:14:11;5.63;;;3.67;;
7931;SDS011;4011;49.424;10.894;2023-04-30T06:19:34;4.90;;;3.42;;
7931;SDS011;4011;49.424;10.894;2023-04-30T06:24:57;4.47;;;3.17;;
7931;SDS011;4011;49.424;10.894;2023-04-30T06:30:19;4.63;;;3.45;;
7931;SDS011;4011;49.424;10.894;2023-04-30T06:35:42;4.50;;;3.30;;
7931;SDS011;4011;49.424;10.894;2023-04-30T06:41:03;4.28;;;3.50;;
7931;SDS011;4011;49.424;10.894;2023-04-30T06:46:25;5.97;;;3.65;;
7931;SDS011;4011;49.424;10.894;2023-04-30T06:51:48;5.10;;;3.67;;
7931;SDS011;4011;49.424;10.894;2023-04-30T06:57:09;6.13;;;3.72;;
7931;SDS011;4011;49.424;10.894;2023-04-30T07:02:31;4.90;;;3.65;;
7931;SDS011;4011;49.424;10.894;2023-04-30T07:07:54;4.80;;;3.70;;
7931;SDS011;4011;49.424;10.894;2023-04-30T07:13:15;5.22;;;3.45;;
7931;SDS011;4011;49.424;10.894;2023-04-30T07:18:37;4.90;;;3.38;;
7931;SDS011;4011;49.424;10.894;2023-04-30T07:24:01;5.60;;;3.95;;
7931;SDS011;4011;49.424;10.894;2023-04-30T07:29:22;4.50;;;3.55;;
7931;SDS011;4011;49.424;10.894;2023-04-30T07:34:44;5.10;;;3.90;;
7931;SDS011;4011;49.424;10.894;2023-04-30T07:40:07;4.63;;;3.58;;
7931;SDS011;4011;49.424;10.894;2023-04-30T07:45:32;4.95;;;3.60;;
7931;SDS011;4011;49.424;10.894;2023-04-30T07:50:54;4.63;;;3.50;;
7931;SDS011;4011;49.424;10.894;2023-04-30T07:56:17;4.78;;;3.70;;
7931;SDS011;4011;49.424;10.894;2023-04-30T08:01:38;4.85;;;3.58;;
7931;SDS011;4011;49.424;10.894;2023-04-30T08:07:00;5.13;;;3.63;;
7931;SDS011;4011;49.424;10.894;2023-04-30T08:12:24;4.47;;;3.22;;
7931;SDS011;4011;49.424;10.894;2023-04-30T08:17:47;4.57;;;3.58;;
7931;SDS011;4011;49.424;10.894;2023-04-30T08:23:09;6.88;;;3.45;;
7931;SDS011;4011;49.424;10.894;2023-04-30T08:28:32;4.47;;;3.70;;
7931;SDS011;4011;49.424;10.894;2023-04-30T08:33:53;5.50;;;3.85;;
7931;SDS011;4011;49.424;10.894;2023-04-30T08:39:14;4.82;;;3.83;;
7931;SDS011;4011;49.424;10.894;2023-04-30T08:44:37;4.43;;;3.40;;
7931;SDS011;4011;49.424;10.894;2023-04-30T08:50:02;4.05;;;3.05;;
7931;SDS011;4011;49.424;10.894;2023-04-30T08:55:24;4.57;;;3.38;;
7931;SDS011;4011;49.424;10.894;2023-04-30T09:00:47;4.55;;;3.20;;
7931;SDS011;4011;49.424;10.894;2023-04-30T09:06:08;4.22;;;3.40;;
7931;SDS011;4011;49.424;10.894;2023-04-30T09:11:30;4.13;;;3.35;;
7931;SDS011;4011;49.424;10.894;2023-04-30T09:17:12;4.22;;;3.50;;
7931;SDS011;4011;49.424;10.894;2023-04-30T09:22:44;4.50;;;3.10;;
7931;SDS011;4011;49.424;10.894;2023-04-30T09:28:09;4.35;;;3.20;;
7931;SDS011;4011;49.424;10.894;2023-04-30T09:33:45;5.35;;;3.28;;
7931;SDS011;4011;49.424;10.894;2023-04-30T09:39:21;4.00;;;2.92;;
7931;SDS011;4011;49.424;10.894;2023-04-30T09:44:44;4.07;;;3.40;;
7931;SDS011;4011;49.424;10.894;2023-04-30T09:50:10;4.50;;;3.03;;
7931;SDS011;4011;49.424;10.894;2023-04-30T09:55:35;3.63;;;2.90;;
7931;SDS011;4011;49.424;10.894;2023-04-30T10:01:03;3.88;;;3.08;;
7931;SDS011;4011;49.424;10.894;2023-04-30T10:06:37;4.68;;;3.10;;
7931;SDS011;4011;49.424;10.894;2023-04-30T10:12:01;3.72;;;3.15;;
7931;SDS011;4011;49.424;10.894;2023-04-30T10:17:26;4.30;;;3.10;;
7931;SDS011;4011;49.424;10.894;2023-04-30T10:22:53;5.15;;;3.28;;
7931;SDS011;4011;49.424;10.894;2023-04-30T10:28:18;3.60;;;2.90;;
7931;SDS011;4011;49.424;10.894;2023-04-30T10:33:42;3.95;;;2.72;;
7931;SDS011;4011;49.424;10.894;2023-04-30T10:39:10;4.68;;;2.75;;
7931;SDS011;4011;49.424;10.894;2023-04-30T10:44:35;3.88;;;2.70;;
7931;SDS011;4011;49.424;10.894;2023-04-30T10:50:03;3.75;;;2.85;;
7931;SDS011;4011;49.424;10.894;2023-04-30T10:55:27;5.20;;;2.85;;
7931;SDS011;4011;49.424;10.894;2023-04-30T11:00:50;3.45;;;2.72;;
7931;SDS011;4011;49.424;10.894;2023-04-30T11:06:15;4.68;;;2.90;;
7931;SDS011;4011;49.424;10.894;2023-04-30T11:11:43;3.50;;;2.63;;
7931;SDS011;4011;49.424;10.894;2023-04-30T11:17:05;3.40;;;2.50;;
7931;SDS011;4011;49.424;10.894;2023-04-30T11:22:31;3.75;;;2.88;;
7931;SDS011;4011;49.424;10.894;2023-04-30T11:27:56;3.38;;;2.50;;
7931;SDS011;4011;49.424;10.894;2023-04-30T11:33:19;3.80;;;2.50;;
7931;SDS011;4011;49.424;10.894;2023-04-30T11:38:41;3.50;;;2.70;;
7931;SDS011;4011;49.424;10.894;2023-04-30T11:44:05;3.78;;;2.60;;
7931;SDS011;4011;49.424;10.894;2023-04-30T11:49:42;3.92;;;2.50;;
7931;SDS011;4011;49.424;10.894;2023-04-30T11:55:06;3.72;;;2.50;;
7931;SDS011;4011;49.424;10.894;2023-04-30T12:00:32;3.40;;;2.50;;
7931;SDS011;4011;49.424;10.894;2023-04-30T12:05:57;3.58;;;2.40;;
7931;SDS011;4011;49.424;10.894;2023-04-30T12:11:19;3.80;;;2.40;;
7931;SDS011;4011;49.424;10.894;2023-04-30T12:16:49;3.88;;;2.40;;
7931;SDS011;4011;49.424;10.894;2023-04-30T12:22:16;3.53;;;2.60;;
7931;SDS011;4011;49.424;10.894;2023-04-30T12:27:37;3.83;;;2.40;;
7931;SDS011;4011;49.424;10.894;2023-04-30T12:33:00;3.50;;;2.28;;
7931;SDS011;4011;49.424;10.894;2023-04-30T12:38:23;3.75;;;2.70;;
7931;SDS011;4011;49.424;10.894;2023-04-30T12:43:45;3.78;;;2.30;;
7931;SDS011;4011;49.424;10.894;2023-04-30T12:49:10;3.00;;;2.08;;
7931;SDS011;4011;49.424;10.894;2023-04-30T12:54:32;3.17;;;2.05;;
7931;SDS011;4011;49.424;10.894;2023-04-30T12:59:58;3.90;;;2.20;;
7931;SDS011;4011;49.424;10.894;2023-04-30T13:05:21;3.42;;;2.10;;
7931;SDS011;4011;49.424;10.894;2023-04-30T13:10:43;4.28;;;2.20;;
7931;SDS011;4011;49.424;10.894;2023-04-30T13:16:05;3.15;;;2.40;;
7931;SDS011;4011;49.424;10.894;2023-04-30T13:21:28;3.00;;;2.25;;
7931;SDS011;4011;49.424;10.894;2023-04-30T13:26:50;3.30;;;2.30;;
7931;SDS011;4011;49.424;10.894;2023-04-30T13:32:12;3.55;;;2.20;;
7931;SDS011;4011;49.424;10.894;2023-04-30T13:37:38;3.72;;;2.30;;
7931;SDS011;4011;49.424;10.894;2023-04-30T13:43:00;3.35;;;2.15;;
7931;SDS011;4011;49.424;10.894;2023-04-30T13:48:21;3.42;;;2.00;;
7931;SDS011;4011;49.424;10.894;2023-04-30T13:53:45;3.10;;;2.08;;
7931;SDS011;4011;49.424;10.894;2023-04-30T13:59:09;3.67;;;2.20;;
7931;SDS011;4011;49.424;10.894;2023-04-30T14:04:31;3.53;;;2.38;;
7931;SDS011;4011;49.424;10.894;2023-04-30T14:09:54;3.63;;;2.38;;
7931;SDS011;4011;49.424;10.894;2023-04-30T14:15:16;5.60;;;2.40;;
7931;SDS011;4011;49.424;10.894;2023-04-30T14:20:38;3.05;;;2.17;;
7931;SDS011;4011;49.424;10.894;2023-04-30T14:26:01;3.63;;;2.38;;
7931;SDS011;4011;49.424;10.894;2023-04-30T14:31:23;3.10;;;2.15;;
7931;SDS011;4011;49.424;10.894;2023-04-30T14:36:45;3.30;;;2.00;;
7931;SDS011;4011;49.424;10.894;2023-04-30T14:42:08;2.72;;;1.98;;
7931;SDS011;4011;49.424;10.894;2023-04-30T14:47:30;3.50;;;2.28;;
7931;SDS011;4011;49.424;10.894;2023-04-30T14:52:55;3.10;;;1.98;;
7931;SDS011;4011;49.424;10.894;2023-04-30T14:58:19;3.08;;;2.10;;
7931;SDS011;4011;49.424;10.894;2023-04-30T15:03:40;2.78;;;2.17;;
7931;SDS011;4011;49.424;10.894;2023-04-30T15:09:03;4.13;;;2.35;;
7931;SDS011;4011;49.424;10.894;2023-04-30T15:14:27;2.90;;;2.10;;
7931;SDS011;4011;49.424;10.894;2023-04-30T15:19:49;2.97;;;2.13;;
7931;SDS011;4011;49.424;10.894;2023-04-30T15:25:10;3.20;;;2.03;;
7931;SDS011;4011;49.424;10.894;2023-04-30T15:30:34;2.95;;;2.10;;
7931;SDS011;4011;49.424;10.894;2023-04-30T15:35:56;3.75;;;2.20;;
7931;SDS011;4011;49.424;10.894;2023-04-30T15:41:19;2.90;;;2.10;;
7931;SDS011;4011;49.424;10.894;2023-04-30T15:46:42;3.45;;;2.30;;
7931;SDS011;4011;49.424;10.894;2023-04-30T15:52:04;3.20;;;2.20;;
7931;SDS011;4011;49.424;10.894;2023-04-30T15:57:26;3.55;;;2.20;;
7931;SDS011;4011;49.424;10.894;2023-04-30T16:02:49;3.08;;;2.15;;
7931;SDS011;4011;49.424;10.894;2023-04-30T16:08:11;2.78;;;2.08;;
7931;SDS011;4011;49.424;10.894;2023-04-30T16:13:32;2.90;;;2.15;;
7931;SDS011;4011;49.424;10.894;2023-04-30T16:18:55;3.00;;;2.10;;
7931;SDS011;4011;49.424;10.894;2023-04-30T16:24:17;3.55;;;2.20;;
7931;SDS011;4011;49.424;10.894;2023-04-30T16:29:38;3.03;;;2.10;;
7931;SDS011;4011;49.424;10.894;2023-04-30T16:35:02;2.90;;;2.00;;
7931;SDS011;4011;49.424;10.894;2023-04-30T16:40:25;3.20;;;2.10;;
7931;SDS011;4011;49.424;10.894;2023-04-30T16:45:46;3.08;;;2.08;;
7931;SDS011;4011;49.424;10.894;2023-04-30T16:51:10;3.22;;;2.20;;
7931;SDS011;4011;49.424;10.894;2023-04-30T16:56:32;3.00;;;2.42;;
7931;SDS011;4011;49.424;10.894;2023-04-30T17:01:54;3.10;;;2.10;;
7931;SDS011;4011;49.424;10.894;2023-04-30T17:07:20;3.28;;;2.10;;
7931;SDS011;4011;49.424;10.894;2023-04-30T17:12:49;4.43;;;2.15;;
7931;SDS011;4011;49.424;10.894;2023-04-30T17:18:23;3.22;;;2.20;;
7931;SDS011;4011;49.424;10.894;2023-04-30T17:23:58;3.58;;;2.10;;
7931;SDS011;4011;49.424;10.894;2023-04-30T17:29:31;3.10;;;2.30;;
7931;SDS011;4011;49.424;10.894;2023-04-30T17:34:53;3.30;;;2.00;;
7931;SDS011;4011;49.424;10.894;2023-04-30T17:40:26;3.67;;;2.20;;
7931;SDS011;4011;49.424;10.894;2023-04-30T17:51:27;3.03;;;2.10;;
7931;SDS011;4011;49.424;10.894;2023-04-30T18:02:36;3.83;;;2.40;;
7931;SDS011;4011;49.424;10.894;2023-04-30T18:13:45;3.70;;;2.60;;
7931;SDS011;4011;49.424;10.894;2023-04-30T18:19:27;3.65;;;2.40;;
7931;SDS011;4011;49.424;10.894;2023-04-30T18:24:59;3.30;;;2.47;;
7931;SDS011;4011;49.424;10.894;2023-04-30T18:30:44;3.67;;;2.60;;
7931;SDS011;4011;49.424;10.894;2023-04-30T18:36:12;3.20;;;2.45;;
7931;SDS011;4011;49.424;10.894;2023-04-30T18:41:39;3.58;;;2.50;;
7931;SDS011;4011;49.424;10.894;2023-04-30T18:47:32;3.63;;;2.40;;
7931;SDS011;4011;49.424;10.894;2023-04-30T18:53:19;4.10;;;2.67;;
7931;SDS011;4011;49.424;10.894;2023-04-30T18:59:02;3.65;;;2.60;;
7931;SDS011;4011;49.424;10.894;2023-04-30T19:04:39;3.58;;;2.50;;
7931;SDS011;4011;49.424;10.894;2023-04-30T19:10:09;3.92;;;2.72;;
7931;SDS011;4011;49.424;10.894;2023-04-30T19:15:37;3.47;;;2.42;;
7931;SDS011;4011;49.424;10.894;2023-04-30T19:21:14;3.30;;;2.33;;
7931;SDS011;4011;49.424;10.894;2023-04-30T19:26:50;3.28;;;2.28;;
7931;SDS011;4011;49.424;10.894;2023-04-30T19:32:22;3.53;;;2.50;;
7931;SDS011;4011;49.424;10.894;2023-04-30T19:38:03;3.50;;;2.30;;
7931;SDS011;4011;49.424;10.894;2023-04-30T19:43:29;3.10;;;2.15;;
7931;SDS011;4011;49.424;10.894;2023-04-30T19:48:58;3.78;;;2.42;;
7931;SDS011;4011;49.424;10.894;2023-04-30T19:54:26;3.58;;;2.22;;
7931;SDS011;4011;49.424;10.894;2023-04-30T20:00:15;4.00;;;2.38;;
7931;SDS011;4011;49.424;10.894;2023-04-30T20:05:41;3.90;;;2.40;;
7931;SDS011;4011;49.424;10.894;2023-04-30T20:11:14;4.13;;;2.33;;
7931;SDS011;4011;49.424;10.894;2023-04-30T20:16:48;4.25;;;2.50;;
7931;SDS011;4011;49.424;10.894;2023-04-30T20:22:15;4.75;;;2.53;;
7931;SDS011;4011;49.424;10.894;2023-04-30T20:28:06;4.18;;;2.30;;
7931;SDS011;4011;49.424;10.894;2023-04-30T20:33:53;4.15;;;2.53;;
7931;SDS011;4011;49.424;10.894;2023-04-30T20:39:25;3.97;;;2.53;;
7931;SDS011;4011;49.424;10.894;2023-04-30T20:45:10;3.97;;;2.63;;
7931;SDS011;4011;49.424;10.894;2023-04-30T21:02:09;4.47;;;2.53;;
7931;SDS011;4011;49.424;10.894;2023-04-30T21:07:31;3.53;;;2.50;;
7931;SDS011;4011;49.424;10.894;2023-04-30T21:12:53;5.10;;;2.85;;
7931;SDS011;4011;49.424;10.894;2023-04-30T21:18:16;4.78;;;2.65;;
7931;SDS011;4011;49.424;10.894;2023-04-30T21:23:38;3.58;;;2.38;;
7931;SDS011;4011;49.424;10.894;2023-04-30T21:29:01;4.68;;;2.63;;
7931;SDS011;4011;49.424;10.894;2023-04-30T21:34:24;3.58;;;2.45;;
7931;SDS011;4011;49.424;10.894;2023-04-30T21:39:45;4.30;;;2.38;;
7931;SDS011;4011;49.424;10.894;2023-04-30T21:45:07;4.15;;;2.60;;
7931;SDS011;4011;49.424;10.894;2023-04-30T21:50:32;3.85;;;2.40;;
7931;SDS011;4011;49.424;10.894;2023-04-30T21:55:53;4.18;;;2.60;;
7931;SDS011;4011;49.424;10.894;2023-04-30T22:01:16;3.58;;;2.42;;
7931;SDS011;4011;49.424;10.894;2023-04-30T22:06:40;3.67;;;2.35;;
7931;SDS011;4011;49.424;10.894;2023-04-30T22:12:01;3.85;;;2.50;;
7931;SDS011;4011;49.424;10.894;2023-04-30T22:17:25;4.03;;;2.55;;
7931;SDS011;4011;49.424;10.894;2023-04-30T22:22:50;4.55;;;2.60;;
7931;SDS011;4011;49.424;10.894;2023-04-30T22:28:12;3.63;;;2.30;;
7931;SDS011;4011;49.424;10.894;2023-04-30T22:33:36;3.95;;;2.50;;
7931;SDS011;4011;49.424;10.894;2023-04-30T22:38:59;3.83;;;2.50;;
7931;SDS011;4011;49.424;10.894;2023-04-30T22:44:20;4.00;;;2.35;;
7931;SDS011;4011;49.424;10.894;2023-04-30T22:49:42;3.35;;;2.50;;
7931;SDS011;4011;49.424;10.894;2023-04-30T22:55:06;3.85;;;2.58;;
7931;SDS011;4011;49.424;10.894;2023-04-30T23:00:28;4.15;;;2.63;;
7931;SDS011;4011;49.424;10.894;2023-04-30T23:05:49;3.72;;;2.30;;
7931;SDS011;4011;49.424;10.894;2023-04-30T23:11:12;3.83;;;2.42;;
7931;SDS011;4011;49.424;10.894;2023-04-30T23:16:34;3.75;;;2.40;;
7931;SDS011;4011;49.424;10.894;2023-04-30T23:21:59;3.40;;;2.50;;
7931;SDS011;4011;49.424;10.894;2023-04-30T23:27:22;3.53;;;2.40;;
7931;SDS011;4011;49.424;10.894;2023-04-30T23:32:43;3.80;;;2.67;;
7931;SDS011;4011;49.424;10.894;2023-04-30T23:38:05;4.15;;;2.30;;
7931;SDS011;4011;49.424;10.894;2023-04-30T23:43:33;3.85;;;2.50;;
7931;SDS011;4011;49.424;10.894;2023-04-30T23:48:55;4.50;;;2.63;;
7931;SDS011;4011;49.424;10.894;2023-04-30T23:54:16;3.20;;;2.45;;
7931;SDS011;4011;49.424;10.894;2023-04-30T23:59:39;3.42;;;2.33;;
